createdAt,value
2019-04-29T00:01:26.132Z,9.10
2019-04-29T00:03:52.212Z,9.07
2019-04-29T00:06:20.219Z,5.77
2019-04-29T00:08:47.231Z,7.73
2019-04-29T00:11:13.288Z,6.80
2019-04-29T00:13:39.403Z,6.17
2019-04-29T00:16:14.320Z,9.20
2019-04-29T00:18:43.255Z,6.70
2019-04-29T00:21:09.464Z,10.50
2019-04-29T00:23:37.439Z,7.63
2019-04-29T00:26:03.465Z,6.20
2019-04-29T00:28:29.518Z,5.80
2019-04-29T00:30:57.472Z,6.83
2019-04-29T00:33:23.578Z,7.03
2019-04-29T00:35:49.647Z,7.60
2019-04-29T00:38:33.895Z,5.80
2019-04-29T00:41:07.579Z,5.80
2019-04-29T00:43:44.277Z,6.77
2019-04-29T00:46:11.488Z,5.67
2019-04-29T00:48:38.564Z,6.00
2019-04-29T00:51:04.771Z,5.70
2019-04-29T00:53:32.691Z,7.30
2019-04-29T00:56:00.634Z,6.17
2019-04-29T00:58:26.653Z,7.73
2019-04-29T01:00:53.883Z,6.10
2019-04-29T01:03:20.867Z,6.60
2019-04-29T01:05:46.871Z,5.83
2019-04-29T01:08:13.897Z,6.03
2019-04-29T01:10:39.956Z,8.90
2019-04-29T01:13:07.251Z,6.03
2019-04-29T01:15:33.268Z,8.40
2019-04-29T01:17:59.269Z,6.20
2019-04-29T01:20:25.308Z,8.40
2019-04-29T01:22:51.341Z,6.93
2019-04-29T01:25:17.442Z,6.83
2019-04-29T01:28:01.651Z,7.43
2019-04-29T01:30:35.487Z,6.43
2019-04-29T01:33:01.514Z,6.60
2019-04-29T01:35:27.553Z,6.17
2019-04-29T01:37:54.935Z,6.70
2019-04-29T01:40:25.342Z,6.93
2019-04-29T01:42:51.347Z,7.00
2019-04-29T01:45:17.461Z,8.20
2019-04-29T01:47:43.456Z,8.50
2019-04-29T01:50:12.394Z,10.63
2019-04-29T01:52:38.371Z,6.57
2019-04-29T01:55:04.616Z,6.60
2019-04-29T01:57:32.527Z,5.87
2019-04-29T01:59:58.558Z,8.23
2019-04-29T02:02:25.581Z,7.40
2019-04-29T02:04:51.631Z,9.63
2019-04-29T02:07:18.859Z,7.57
2019-04-29T02:09:58.462Z,7.50
2019-04-29T02:12:24.474Z,8.03
2019-04-29T02:14:51.507Z,7.20
2019-04-29T02:17:17.506Z,7.30
2019-04-29T02:19:44.601Z,7.83
2019-04-29T02:22:28.667Z,8.50
2019-04-29T02:24:56.583Z,7.17
2019-04-29T02:27:22.628Z,10.73
2019-04-29T02:29:48.661Z,8.43
2019-04-29T02:32:14.691Z,7.80
2019-04-29T02:34:40.780Z,7.77
2019-04-29T02:37:09.709Z,7.03
2019-04-29T02:39:37.697Z,8.43
2019-04-29T02:42:22.232Z,6.90
2019-04-29T02:44:49.025Z,7.90
2019-04-29T02:47:17.542Z,8.27
2019-04-29T02:49:45.562Z,13.07
2019-04-29T02:52:11.546Z,7.67
2019-04-29T02:54:37.674Z,10.37
2019-04-29T02:57:08.169Z,9.20
2019-04-29T02:59:36.095Z,8.77
2019-04-29T03:02:04.375Z,8.93
2019-04-29T03:04:38.156Z,9.97
2019-04-29T03:07:04.200Z,11.80
2019-04-29T03:09:32.134Z,8.80
2019-04-29T03:12:01.793Z,9.93
2019-04-29T03:14:26.139Z,11.43
2019-04-29T03:16:52.264Z,10.43
2019-04-29T03:19:25.972Z,14.57
2019-04-29T03:21:54.786Z,11.90
2019-04-29T03:24:20.981Z,14.40
2019-04-29T03:26:46.971Z,12.50
2019-04-29T03:29:23.882Z,9.33
2019-04-29T03:31:50.769Z,11.03
2019-04-29T03:34:16.760Z,8.33
2019-04-29T03:36:44.534Z,14.10
2019-04-29T03:39:10.549Z,11.80
2019-04-29T03:41:36.662Z,9.87
2019-04-29T03:44:04.059Z,11.60
2019-04-29T03:46:31.104Z,11.50
2019-04-29T03:48:57.148Z,10.03
2019-04-29T03:51:24.163Z,11.60
2019-04-29T03:53:50.195Z,13.63
2019-04-29T03:56:16.312Z,11.80
2019-04-29T03:58:43.364Z,13.43
2019-04-29T04:01:22.796Z,11.20
2019-04-29T04:03:50.986Z,12.27
2019-04-29T04:06:21.441Z,10.00
2019-04-29T04:09:05.324Z,11.57
2019-04-29T04:11:21.250Z,11.87
2019-04-29T04:13:47.264Z,10.33
2019-04-29T04:16:15.209Z,13.30
2019-04-29T04:18:45.239Z,13.70
2019-04-29T04:21:11.274Z,10.50
2019-04-29T04:23:37.301Z,8.60
2019-04-29T04:26:03.458Z,10.07
2019-04-29T04:28:29.485Z,11.93
2019-04-29T04:30:55.710Z,12.60
2019-04-29T04:33:23.749Z,12.10
2019-04-29T04:35:49.778Z,13.83
2019-04-29T04:38:15.853Z,11.03
2019-04-29T04:40:47.492Z,11.60
2019-04-29T04:43:14.214Z,14.40
2019-04-29T04:45:41.001Z,10.57
2019-04-29T04:48:07.990Z,12.83
2019-04-29T04:50:34.085Z,16.60
2019-04-29T04:53:00.120Z,10.10
2019-04-29T04:55:28.482Z,13.17
2019-04-29T04:57:54.505Z,11.83
2019-04-29T05:00:22.605Z,16.10
2019-04-29T05:02:48.948Z,11.30
2019-04-29T05:05:15.294Z,11.07
2019-04-29T05:07:41.306Z,14.57
2019-04-29T05:10:07.431Z,12.97
2019-04-29T05:12:34.430Z,14.67
2019-04-29T05:15:00.460Z,12.77
2019-04-29T05:17:26.710Z,14.73
2019-04-29T05:19:52.709Z,18.33
2019-04-29T05:22:18.936Z,13.60
2019-04-29T05:24:44.983Z,16.37
2019-04-29T05:27:11.243Z,15.77
2019-04-29T05:29:37.489Z,12.70
2019-04-29T05:32:06.567Z,15.53
2019-04-29T05:34:35.543Z,13.83
2019-04-29T05:37:07.266Z,11.93
2019-04-29T05:39:39.398Z,14.53
2019-04-29T05:42:07.641Z,15.30
2019-04-29T05:44:38.011Z,15.67
2019-04-29T05:47:05.971Z,15.53
2019-04-29T05:49:37.497Z,14.60
2019-04-29T05:52:11.542Z,12.30
2019-04-29T05:54:37.867Z,16.73
2019-04-29T05:57:03.948Z,18.57
2019-04-29T05:59:29.940Z,18.83
2019-04-29T06:01:56.008Z,20.83
2019-04-29T06:04:22.031Z,22.40
2019-04-29T06:06:50.040Z,17.70
2019-04-29T06:09:18.334Z,21.47
2019-04-29T06:11:43.957Z,17.83
2019-04-29T06:14:10.040Z,15.60
2019-04-29T06:16:36.103Z,16.90
2019-04-29T06:19:06.371Z,15.97
2019-04-29T06:21:32.658Z,13.70
2019-04-29T06:23:59.532Z,19.23
2019-04-29T06:26:26.964Z,15.93
2019-04-29T06:28:54.157Z,15.90
2019-04-29T06:31:20.159Z,14.20
2019-04-29T06:33:46.717Z,18.83
2019-04-29T06:36:13.947Z,14.30
2019-04-29T06:38:41.444Z,11.63
2019-04-29T06:41:09.681Z,13.23
2019-04-29T06:43:35.440Z,19.50
2019-04-29T06:46:01.482Z,12.90
2019-04-29T06:48:30.739Z,15.77
2019-04-29T06:50:56.761Z,14.23
2019-04-29T06:53:24.589Z,19.40
2019-04-29T06:55:50.650Z,19.57
2019-04-29T06:58:17.686Z,16.17
2019-04-29T07:00:43.739Z,18.00
2019-04-29T07:03:09.753Z,18.13
2019-04-29T07:05:37.753Z,17.77
2019-04-29T07:08:03.751Z,15.93
2019-04-29T07:10:30.046Z,16.03
2019-04-29T07:12:56.074Z,18.07
2019-04-29T07:15:22.330Z,14.60
2019-04-29T07:17:48.494Z,20.40
2019-04-29T07:20:14.724Z,21.70
2019-04-29T07:22:40.746Z,19.33
2019-04-29T07:25:07.417Z,17.30
2019-04-29T07:27:34.857Z,22.47
2019-04-29T07:30:08.411Z,22.13
2019-04-29T07:32:37.436Z,20.80
2019-04-29T07:35:05.965Z,14.90
2019-04-29T07:37:34.201Z,19.93
2019-04-29T07:40:03.664Z,16.63
2019-04-29T07:42:32.143Z,16.70
2019-04-29T07:45:15.032Z,22.83
2019-04-29T07:47:55.902Z,15.77
2019-04-29T07:50:12.012Z,20.33
2019-04-29T07:52:38.111Z,20.50
2019-04-29T07:55:05.431Z,19.60
2019-04-29T07:57:31.506Z,17.40
2019-04-29T07:59:57.603Z,19.60
2019-04-29T08:02:25.884Z,16.70
2019-04-29T08:04:53.080Z,15.47
2019-04-29T08:07:19.101Z,14.97
2019-04-29T08:09:45.440Z,16.33
2019-04-29T08:12:14.301Z,20.17
2019-04-29T08:14:42.018Z,18.83
2019-04-29T08:17:09.041Z,18.73
2019-04-29T08:19:35.274Z,15.67
2019-04-29T08:22:01.277Z,15.73
2019-04-29T08:24:28.425Z,18.67
2019-04-29T08:26:55.500Z,16.27
2019-04-29T08:29:21.517Z,16.47
2019-04-29T08:31:51.816Z,14.40
2019-04-29T08:34:22.990Z,18.90
2019-04-29T08:36:46.814Z,12.97
2019-04-29T08:39:12.924Z,13.20
2019-04-29T08:41:38.969Z,8.20
2019-04-29T08:44:23.762Z,11.10
2019-04-29T08:46:52.811Z,10.40
2019-04-29T08:49:19.003Z,9.30
2019-04-29T08:51:46.149Z,12.93
2019-04-29T08:54:16.117Z,12.60
2019-04-29T08:56:42.549Z,8.90
2019-04-29T08:59:09.298Z,9.23
2019-04-29T09:01:35.842Z,7.47
2019-04-29T09:04:02.946Z,8.00
2019-04-29T09:06:32.550Z,8.20
2019-04-29T09:08:59.679Z,9.90
2019-04-29T09:11:26.926Z,8.40
2019-04-29T09:13:52.933Z,10.77
2019-04-29T09:16:18.987Z,12.27
2019-04-29T09:18:44.978Z,10.07
2019-04-29T09:21:10.965Z,6.63
2019-04-29T09:23:37.695Z,8.73
2019-04-29T09:26:24.298Z,7.10
2019-04-29T09:28:50.448Z,11.03
2019-04-29T09:31:18.617Z,11.87
2019-04-29T09:33:49.254Z,10.47
2019-04-29T09:36:15.095Z,9.63
2019-04-29T09:38:41.294Z,8.53
2019-04-29T09:41:20.923Z,8.83
2019-04-29T09:44:03.876Z,7.13
2019-04-29T09:46:34.402Z,10.20
2019-04-29T09:49:00.472Z,8.63
2019-04-29T09:51:27.977Z,9.13
2019-04-29T09:53:54.461Z,10.80
2019-04-29T09:56:21.059Z,11.60
2019-04-29T09:58:51.771Z,11.70
2019-04-29T10:01:22.505Z,11.30
2019-04-29T10:03:58.032Z,8.27
2019-04-29T10:06:26.361Z,12.03
2019-04-29T10:08:52.359Z,12.17
2019-04-29T10:11:18.456Z,11.60
2019-04-29T10:13:44.474Z,11.30
2019-04-29T10:16:31.650Z,12.13
2019-04-29T10:19:07.072Z,7.90
2019-04-29T10:21:35.372Z,8.67
2019-04-29T10:24:01.787Z,8.93
2019-04-29T10:26:27.828Z,9.23
2019-04-29T10:29:01.548Z,10.20
2019-04-29T10:31:27.905Z,7.17
2019-04-29T10:33:54.946Z,7.30
2019-04-29T10:36:22.227Z,9.60
2019-04-29T10:38:49.358Z,7.00
2019-04-29T10:41:31.283Z,11.27
2019-04-29T10:43:59.521Z,10.20
2019-04-29T10:46:44.477Z,9.27
2019-04-29T10:49:16.388Z,7.10
2019-04-29T10:51:43.706Z,9.43
2019-04-29T10:54:09.867Z,8.63
2019-04-29T10:56:39.438Z,8.20
2019-04-29T10:59:09.239Z,12.33
2019-04-29T11:02:15.920Z,9.80
2019-04-29T11:04:42.881Z,12.80
2019-04-29T11:07:14.207Z,8.50
2019-04-29T11:09:50.729Z,7.50
2019-04-29T11:12:18.960Z,13.00
2019-04-29T11:14:45.091Z,7.50
2019-04-29T11:17:16.290Z,11.50
2019-04-29T11:19:41.631Z,6.60
2019-04-29T11:22:09.548Z,7.90
2019-04-29T11:24:55.741Z,11.43
2019-04-29T11:27:26.503Z,10.50
2019-04-29T11:29:54.184Z,9.00
2019-04-29T11:32:29.178Z,7.30
2019-04-29T11:34:56.167Z,8.73
2019-04-29T11:37:24.058Z,7.33
2019-04-29T11:39:51.389Z,5.90
2019-04-29T11:42:19.883Z,5.80
2019-04-29T11:44:45.899Z,6.43
2019-04-29T11:47:11.942Z,7.53
2019-04-29T11:49:40.861Z,6.87
2019-04-29T11:52:09.814Z,6.20
2019-04-29T11:54:35.072Z,6.43
2019-04-29T11:57:01.096Z,7.10
2019-04-29T11:59:32.125Z,6.70
2019-04-29T12:02:16.643Z,7.90
2019-04-29T12:04:47.217Z,8.43
2019-04-29T12:07:14.829Z,5.50
2019-04-29T12:09:44.213Z,5.43
2019-04-29T12:12:12.867Z,7.40
2019-04-29T12:14:59.193Z,4.00
2019-04-29T12:17:30.918Z,5.83
2019-04-29T12:19:58.790Z,7.67
2019-04-29T12:22:30.524Z,9.13
2019-04-29T12:24:55.698Z,4.87
2019-04-29T12:27:21.890Z,7.53
2019-04-29T12:29:54.302Z,6.67
2019-04-29T12:32:26.644Z,4.77
2019-04-29T12:35:16.716Z,7.10
2019-04-29T12:37:53.858Z,3.93
2019-04-29T12:40:21.760Z,4.60
2019-04-29T12:42:54.972Z,4.50
2019-04-29T12:45:36.535Z,6.13
2019-04-29T12:48:06.234Z,12.50
2019-04-29T12:50:30.908Z,5.33
2019-04-29T12:52:58.185Z,5.80
2019-04-29T12:55:43.651Z,4.70
2019-04-29T12:57:57.828Z,6.13
2019-04-29T13:00:25.767Z,7.97
2019-04-29T13:03:00.270Z,5.80
2019-04-29T13:05:28.779Z,4.80
2019-04-29T13:07:56.752Z,6.23
2019-04-29T13:10:37.698Z,5.80
2019-04-29T13:13:02.621Z,5.00
2019-04-29T13:16:10.382Z,6.27
2019-04-29T13:18:44.253Z,5.30
2019-04-29T13:21:10.850Z,8.60
2019-04-29T13:23:53.726Z,4.40
2019-04-29T13:26:07.974Z,5.50
2019-04-29T13:28:40.112Z,5.00
2019-04-29T13:31:02.709Z,5.40
2019-04-29T13:33:28.765Z,5.90
2019-04-29T13:35:55.781Z,5.93
2019-04-29T13:38:21.778Z,4.63
2019-04-29T13:40:47.844Z,7.17
2019-04-29T13:43:13.867Z,7.07
2019-04-29T13:45:47.642Z,10.17
2019-04-29T13:48:24.450Z,5.67
2019-04-29T13:51:10.356Z,7.87
2019-04-29T13:53:39.595Z,5.00
2019-04-29T13:56:11.580Z,4.60
2019-04-29T13:58:33.890Z,5.57
2019-04-29T14:01:03.899Z,18.50
2019-04-29T14:03:49.482Z,6.80
2019-04-29T14:06:18.767Z,7.63
2019-04-29T14:08:43.668Z,5.60
2019-04-29T14:11:09.978Z,7.93
2019-04-29T14:13:43.267Z,5.20
2019-04-29T14:16:12.040Z,6.13
2019-04-29T14:18:43.547Z,8.60
2019-04-29T14:21:07.995Z,7.33
2019-04-29T14:23:34.104Z,7.83
2019-04-29T14:26:01.018Z,6.30
2019-04-29T14:28:27.022Z,6.53
2019-04-29T14:30:55.661Z,9.50
2019-04-29T14:33:24.186Z,7.17
2019-04-29T14:35:52.712Z,7.20
2019-04-29T14:38:18.971Z,6.57
2019-04-29T14:40:45.880Z,8.03
2019-04-29T14:43:32.122Z,7.97
2019-04-29T14:46:15.956Z,14.17
2019-04-29T14:48:44.621Z,8.27
2019-04-29T14:51:11.230Z,7.30
2019-04-29T14:53:37.573Z,15.03
2019-04-29T14:56:03.622Z,10.40
2019-04-29T14:58:29.668Z,11.33
2019-04-29T15:00:57.899Z,9.87
2019-04-29T15:03:28.707Z,14.40
2019-04-29T15:05:55.821Z,10.40
2019-04-29T15:08:22.174Z,9.50
2019-04-29T15:10:50.299Z,9.50
2019-04-29T15:13:21.453Z,9.10
2019-04-29T15:16:04.362Z,18.83
2019-04-29T15:18:45.901Z,7.80
2019-04-29T15:21:05.965Z,8.00
2019-04-29T15:23:32.541Z,6.97
2019-04-29T15:25:57.687Z,7.80
2019-04-29T15:28:25.600Z,9.20
2019-04-29T15:30:51.607Z,7.60
2019-04-29T15:33:18.635Z,8.03
2019-04-29T15:35:44.623Z,8.57
2019-04-29T15:38:10.611Z,7.62
2019-04-29T15:40:42.786Z,8.70
2019-04-29T15:43:05.396Z,8.90
2019-04-29T15:45:32.380Z,9.20
2019-04-29T15:47:59.328Z,8.13
2019-04-29T15:50:25.443Z,10.03
2019-04-29T15:52:53.393Z,9.93
2019-04-29T15:55:20.407Z,9.67
2019-04-29T16:00:21.901Z,7.97
2019-04-29T16:02:44.800Z,8.90
2019-04-29T16:05:28.022Z,8.70
2019-04-29T16:08:04.842Z,9.43
2019-04-29T16:10:32.890Z,9.70
2019-04-29T16:13:12.116Z,8.97
2019-04-29T16:15:38.156Z,11.27
2019-04-29T16:18:05.499Z,9.30
2019-04-29T16:20:31.737Z,9.47
2019-04-29T16:23:00.650Z,10.10
2019-04-29T16:25:27.174Z,10.90
2019-04-29T16:27:55.085Z,10.70
2019-04-29T16:30:25.954Z,9.20
2019-04-29T16:32:51.892Z,10.10
2019-04-29T16:35:23.276Z,8.53
2019-04-29T16:37:45.830Z,8.80
2019-04-29T16:40:13.979Z,10.23
2019-04-29T16:42:44.897Z,11.30
2019-04-29T16:45:11.965Z,8.57
2019-04-29T16:47:39.406Z,8.87
2019-04-29T16:50:06.206Z,10.93
2019-04-29T16:52:44.167Z,8.80
2019-04-29T16:55:06.955Z,9.17
2019-04-29T16:57:33.090Z,8.13
2019-04-29T16:59:59.337Z,8.97
2019-04-29T17:02:25.374Z,11.80
2019-04-29T17:04:53.347Z,9.23
2019-04-29T17:07:19.400Z,9.10
2019-04-29T17:09:53.300Z,11.20
2019-04-29T17:12:19.740Z,10.67
2019-04-29T17:15:02.858Z,9.20
2019-04-29T17:17:18.953Z,10.50
2019-04-29T17:19:46.497Z,9.83
2019-04-29T17:22:25.623Z,8.80
2019-04-29T17:24:41.737Z,11.43
2019-04-29T17:27:20.414Z,10.93
2019-04-29T17:29:55.386Z,9.33
2019-04-29T17:32:42.825Z,10.70
2019-04-29T17:35:03.570Z,8.57
2019-04-29T17:35:17.729Z,8.93
2019-04-29T17:37:30.939Z,9.30
2019-04-29T17:39:58.024Z,10.60
2019-04-29T17:42:25.194Z,10.10
2019-04-29T17:44:53.436Z,10.73
2019-04-29T17:47:24.249Z,10.00
2019-04-29T17:49:53.284Z,9.93
2019-04-29T17:52:25.978Z,11.17
2019-04-29T17:54:55.320Z,10.33
2019-04-29T17:57:32.050Z,11.90
2019-04-29T18:00:08.297Z,12.53
2019-04-29T18:02:57.363Z,12.70
2019-04-29T18:05:34.469Z,19.30
2019-04-29T18:08:14.327Z,19.07
2019-04-29T18:10:46.991Z,22.47
2019-04-29T18:13:17.274Z,13.60
2019-04-29T18:15:58.659Z,13.93
2019-04-29T18:18:17.378Z,11.70
2019-04-29T18:21:06.485Z,11.53
2019-04-29T18:23:44.640Z,14.30
2019-04-29T18:26:16.696Z,13.37
2019-04-29T18:28:45.776Z,19.37
2019-04-29T18:31:13.252Z,15.83
2019-04-29T18:33:39.312Z,14.13
2019-04-29T18:36:07.081Z,15.60
2019-04-29T18:38:35.018Z,14.90
2019-04-29T18:41:01.147Z,12.40
2019-04-29T18:43:30.081Z,14.33
2019-04-29T18:45:59.064Z,14.60
2019-04-29T18:48:26.968Z,13.87
2019-04-29T18:50:53.152Z,15.87
2019-04-29T18:53:19.216Z,12.63
2019-04-29T18:55:45.783Z,14.63
2019-04-29T18:58:11.832Z,14.97
2019-04-29T19:00:39.546Z,13.03
2019-04-29T19:03:08.736Z,17.97
2019-04-29T19:05:45.303Z,13.97
2019-04-29T19:08:15.023Z,14.93
2019-04-29T19:10:41.366Z,14.43
2019-04-29T19:13:12.547Z,13.83
2019-04-29T19:15:35.532Z,15.07
2019-04-29T19:18:05.383Z,13.87
2019-04-29T19:20:30.702Z,14.63
2019-04-29T19:23:07.819Z,16.20
2019-04-29T19:25:28.533Z,14.53
2019-04-29T19:27:55.613Z,15.37
2019-04-29T19:30:26.347Z,16.00
2019-04-29T19:32:55.597Z,15.00
2019-04-29T19:35:17.908Z,14.37
2019-04-29T19:37:47.991Z,15.03
2019-04-29T19:40:15.219Z,16.10
2019-04-29T19:42:42.586Z,16.23
2019-04-29T19:45:13.357Z,19.90
2019-04-29T19:47:36.721Z,17.10
2019-04-29T19:50:05.784Z,16.17
2019-04-29T19:52:36.136Z,15.53
2019-04-29T19:55:04.065Z,16.13
2019-04-29T19:57:30.221Z,17.40
2019-04-29T19:59:57.126Z,17.80
2019-04-29T20:02:25.879Z,16.77
2019-04-29T20:04:59.682Z,17.00
2019-04-29T20:07:27.628Z,18.63
2019-04-29T20:10:04.136Z,20.80
2019-04-29T20:12:25.770Z,15.60
2019-04-29T20:14:59.779Z,17.87
2019-04-29T20:17:39.378Z,18.50
2019-04-29T20:20:18.720Z,18.60
2019-04-29T20:22:50.648Z,20.87
2019-04-29T20:25:13.365Z,19.37
2019-04-29T20:27:39.672Z,19.73
2019-04-29T20:30:15.685Z,18.27
2019-04-29T20:32:36.251Z,20.87
2019-04-29T20:35:08.373Z,18.80
2019-04-29T20:37:36.446Z,19.90
2019-04-29T20:40:05.744Z,20.63
2019-04-29T20:42:32.167Z,21.80
2019-04-29T20:44:58.215Z,20.97
2019-04-29T20:47:37.252Z,19.87
2019-04-29T20:49:52.454Z,21.77
2019-04-29T20:52:29.450Z,21.83
2019-04-29T20:55:00.859Z,22.67
2019-04-29T20:57:25.796Z,22.27
2019-04-29T20:59:55.136Z,30.83
2019-04-29T21:02:31.308Z,24.27
2019-04-29T21:04:50.388Z,27.07
2019-04-29T21:07:23.510Z,26.57
2019-04-29T21:09:45.743Z,28.20
2019-04-29T21:12:20.849Z,28.93
2019-04-29T21:14:48.770Z,27.63
2019-04-29T21:17:28.287Z,26.70
2019-04-29T21:19:42.804Z,31.57
2019-04-29T21:22:12.984Z,28.93
2019-04-29T21:24:36.874Z,30.17
2019-04-29T21:27:05.480Z,30.77
2019-04-29T21:29:32.095Z,28.67
2019-04-29T21:32:01.602Z,36.33
2019-04-29T21:34:29.602Z,31.53
2019-04-29T21:37:17.704Z,33.57
2019-04-29T21:39:48.661Z,34.40
2019-04-29T21:42:16.577Z,34.87
2019-04-29T21:44:42.636Z,33.23
2019-04-29T21:47:10.918Z,31.53
2019-04-29T21:49:45.353Z,34.97
2019-04-29T21:52:06.937Z,32.97
2019-04-29T21:54:32.973Z,34.80
2019-04-29T21:57:02.572Z,32.47
2019-04-29T21:59:28.587Z,33.93
2019-04-29T22:01:56.165Z,33.33
2019-04-29T22:04:22.631Z,27.20
2019-04-29T22:06:48.654Z,33.00
2019-04-29T22:09:15.906Z,30.23
2019-04-29T22:11:43.465Z,28.60
2019-04-29T22:14:14.113Z,34.23
2019-04-29T22:16:41.356Z,29.73
2019-04-29T22:19:07.627Z,28.97
2019-04-29T22:21:33.661Z,28.67
2019-04-29T22:24:00.650Z,29.63
2019-04-29T22:26:27.059Z,30.43
2019-04-29T22:28:58.358Z,30.03
2019-04-29T22:31:21.460Z,30.03
2019-04-29T22:33:49.063Z,32.03
2019-04-29T22:36:18.129Z,30.83
2019-04-29T22:38:48.643Z,31.23
2019-04-29T22:41:18.741Z,31.57
2019-04-29T22:43:44.626Z,30.07
2019-04-29T22:46:17.207Z,32.80
2019-04-29T22:48:45.444Z,31.40
2019-04-29T22:51:10.114Z,29.83
2019-04-29T22:53:40.129Z,25.10
2019-04-29T22:56:08.876Z,28.33
2019-04-29T22:58:35.101Z,28.10
2019-04-29T23:01:02.544Z,26.20
2019-04-29T23:03:32.736Z,30.80
2019-04-29T23:06:04.056Z,30.30
2019-04-29T23:08:29.707Z,28.57
2019-04-29T23:10:59.792Z,27.77
2019-04-29T23:13:26.800Z,27.30
2019-04-29T23:15:53.732Z,27.80
2019-04-29T23:18:26.714Z,24.70
2019-04-29T23:21:08.801Z,28.93
2019-04-29T23:23:39.795Z,30.77
2019-04-29T23:26:05.797Z,25.33
2019-04-29T23:28:31.812Z,24.43
2019-04-29T23:30:57.900Z,26.13
2019-04-29T23:33:25.898Z,30.33
2019-04-29T23:35:52.032Z,29.87
2019-04-29T23:38:18.392Z,29.67
2019-04-29T23:40:44.379Z,26.50
2019-04-29T23:43:19.966Z,27.40
2019-04-29T23:45:45.353Z,29.00
2019-04-29T23:48:11.455Z,31.60
2019-04-29T23:50:39.388Z,29.83
2019-04-29T23:53:05.760Z,33.67
2019-04-29T23:55:32.184Z,28.60
2019-04-29T23:58:03.777Z,29.80
